Norman Atlantic — IBUM — position and weather

sailwx.info

Track history (hours):
 
Tides and Currents Weather Stations Pressure Air Temp Water Temp Dewpoint Dewpoint Depression Visibility Wind Speed Wind Dir Waves Ship Positions

Norman Atlantic

Last reported at 2014-Jul-31 21:32 UTC. Time now 2014-Jul-31 21:49 UTC.
Position N 52°15' W 006°20'.

Length 186 m; draft 6.3 m.

Type: Passenger vessel. MMSI: 247277400.

Date/timePositionNaut miles runAvg speedWind from/ knotsBaromVisibWave heightAir tempDewpointWater temp
2014-Jul-31 21:32N 52°15' W 006°20'0 0.3
2014-Jul-31 20:33N 52°16' W 006°21'1312.9
2014-Jul-31 19:33N 52°03' W 006°17'25117.9
2014-Jul-31 05:32N 47°56' W 005°07'1919.6
2014-Jul-31 04:33N 47°46' W 004°42'4319.2
2014-Jul-31 02:19N 47°23' W 003°49'1519.4
2014-Jul-31 01:33N 47°16' W 003°29'3919.3
2014-Jul-30 23:33N 47°02' W 002°36'1717.6
2014-Jul-30 22:33N 47°13' W 002°16'240 9.5
2014-Jul-29 21:24N 43°52' W 005°23'1619.3
2014-Jul-29 20:33N 43°38' W 005°35'7 0.5
2014-Jul-29 08:30N 43°34' W 005°41'1314.1
2014-Jul-29 07:33N 43°45' W 005°31'73 2.1
2014-Jul-27 20:32N 44°48' W 004°39'4221.1
2014-Jul-27 18:32N 44°11' W 005°08'2020.8
2014-Jul-27 17:33N 43°54' W 005°23'2121.2
2014-Jul-27 16:33N 43°36' W 005°38'3 0.6
2014-Jul-27 10:31N 43°33' W 005°41'1616.2
2014-Jul-27 09:33N 43°46' W 005°29'19619.3
2014-Jul-26 23:26N 46°35' W 003°10'1719.4
2014-Jul-26 22:33N 46°49' W 002°55'1918.6
2014-Jul-26 21:32N 47°02' W 002°35'6 0.9
2014-Jul-26 14:28N 47°04' W 002°27'4622.2
2014-Jul-26 12:23N 47°17' W 003°32'6422.8
2014-Jul-26 09:33N 47°49' W 004°54'2323.3
2014-Jul-26 08:34N 48°02' W 005°23'2522.9
2014-Jul-26 07:29N 48°18' W 005°52'2522.7
2014-Jul-26 06:23N 48°39' W 006°13'6422.4
2014-Jul-26 03:30N 49°43' W 006°03'2021.4
2014-Jul-26 02:33N 50°03' W 006°02'2121.3
2014-Jul-26 01:33N 50°25' W 006°02'2222.1
2014-Jul-26 00:33N 50°47' W 006°05'2322.9
2014-Jul-25 23:33N 51°10' W 006°09'2323.1
2014-Jul-25 22:33N 51°33' W 006°12'2322.8
2014-Jul-25 21:33N 51°55' W 006°17'20 0.9
2014-Jul-24 22:18N 52°15' W 006°20'0 0.0
2014-Jul-24 21:33N 52°15' W 006°20'2 2.3
2014-Jul-24 20:34N 52°15' W 006°17'1413.8
2014-Jul-24 19:34N 52°01' W 006°16'1918.6
2014-Jul-24 18:33N 51°43' W 006°12'2719.4
2014-Jul-24 17:11N 51°16' W 006°08'1219.1
2014-Jul-24 16:33N 51°04' W 006°05'1918.8
2014-Jul-24 15:33N 50°46' W 006°01'1818.1
2014-Jul-24 14:33N 50°28' W 005°55'12918.0
2014-Jul-24 07:26N 48°20' W 005°38'1919.5
2014-Jul-24 06:28N 48°07' W 005°18'1718.3
2014-Jul-24 05:33N 47°56' W 004°59'1918.7
2014-Jul-24 04:33N 47°45' W 004°36'1918.9
2014-Jul-24 03:33N 47°35' W 004°12'1918.5
2014-Jul-24 02:33N 47°26' W 003°48'1919.0
2014-Jul-24 01:33N 47°16' W 003°25'2019.1
2014-Jul-24 00:29N 47°07' W 002°58'2317.5
2014-Jul-23 23:10N 47°06' W 002°24'231 9.0
2014-Jul-22 21:33N 43°53' W 005°24'1818.2
2014-Jul-22 20:33N 43°37' W 005°36'5 0.4
2014-Jul-22 08:33N 43°34' W 005°41'1414.0
2014-Jul-22 07:33N 43°45' W 005°30'  
Track history (hours):
 
Tides and Currents Weather Stations Pressure Air Temp Water Temp Dewpoint Dewpoint Depression Visibility Wind Speed Wind Dir Waves Ship Positions

Norman Atlantic

Last reported at 2014-Jul-31 21:32 UTC. Time now 2014-Jul-31 21:49 UTC.
Position N 52°15' W 006°20'.

Length 186 m; draft 6.3 m.

Type: Passenger vessel. MMSI: 247277400.

Date/timePositionNaut miles runAvg speedWind from/ knotsBaromVisibWave heightAir tempDewpointWater temp
2014-Jul-31 21:32N 52°15' W 006°20'0 0.3
2014-Jul-31 20:33N 52°16' W 006°21'1312.9
2014-Jul-31 19:33N 52°03' W 006°17'25117.9
2014-Jul-31 05:32N 47°56' W 005°07'1919.6
2014-Jul-31 04:33N 47°46' W 004°42'4319.2
2014-Jul-31 02:19N 47°23' W 003°49'1519.4
2014-Jul-31 01:33N 47°16' W 003°29'3919.3
2014-Jul-30 23:33N 47°02' W 002°36'1717.6
2014-Jul-30 22:33N 47°13' W 002°16'240 9.5
2014-Jul-29 21:24N 43°52' W 005°23'1619.3
2014-Jul-29 20:33N 43°38' W 005°35'7 0.5
2014-Jul-29 08:30N 43°34' W 005°41'1314.1
2014-Jul-29 07:33N 43°45' W 005°31'73 2.1
2014-Jul-27 20:32N 44°48' W 004°39'4221.1
2014-Jul-27 18:32N 44°11' W 005°08'2020.8
2014-Jul-27 17:33N 43°54' W 005°23'2121.2
2014-Jul-27 16:33N 43°36' W 005°38'3 0.6
2014-Jul-27 10:31N 43°33' W 005°41'1616.2
2014-Jul-27 09:33N 43°46' W 005°29'19619.3
2014-Jul-26 23:26N 46°35' W 003°10'1719.4
2014-Jul-26 22:33N 46°49' W 002°55'1918.6
2014-Jul-26 21:32N 47°02' W 002°35'6 0.9
2014-Jul-26 14:28N 47°04' W 002°27'4622.2
2014-Jul-26 12:23N 47°17' W 003°32'6422.8
2014-Jul-26 09:33N 47°49' W 004°54'2323.3
2014-Jul-26 08:34N 48°02' W 005°23'2522.9
2014-Jul-26 07:29N 48°18' W 005°52'2522.7
2014-Jul-26 06:23N 48°39' W 006°13'6422.4
2014-Jul-26 03:30N 49°43' W 006°03'2021.4
2014-Jul-26 02:33N 50°03' W 006°02'2121.3
2014-Jul-26 01:33N 50°25' W 006°02'2222.1
2014-Jul-26 00:33N 50°47' W 006°05'2322.9
2014-Jul-25 23:33N 51°10' W 006°09'2323.1
2014-Jul-25 22:33N 51°33' W 006°12'2322.8
2014-Jul-25 21:33N 51°55' W 006°17'20 0.9
2014-Jul-24 22:18N 52°15' W 006°20'0 0.0
2014-Jul-24 21:33N 52°15' W 006°20'2 2.3
2014-Jul-24 20:34N 52°15' W 006°17'1413.8
2014-Jul-24 19:34N 52°01' W 006°16'1918.6
2014-Jul-24 18:33N 51°43' W 006°12'2719.4
2014-Jul-24 17:11N 51°16' W 006°08'1219.1
2014-Jul-24 16:33N 51°04' W 006°05'1918.8
2014-Jul-24 15:33N 50°46' W 006°01'1818.1
2014-Jul-24 14:33N 50°28' W 005°55'12918.0
2014-Jul-24 07:26N 48°20' W 005°38'1919.5
2014-Jul-24 06:28N 48°07' W 005°18'1718.3
2014-Jul-24 05:33N 47°56' W 004°59'1918.7
2014-Jul-24 04:33N 47°45' W 004°36'1918.9
2014-Jul-24 03:33N 47°35' W 004°12'1918.5
2014-Jul-24 02:33N 47°26' W 003°48'1919.0
2014-Jul-24 01:33N 47°16' W 003°25'2019.1
2014-Jul-24 00:29N 47°07' W 002°58'2317.5
2014-Jul-23 23:10N 47°06' W 002°24'231 9.0
2014-Jul-22 21:33N 43°53' W 005°24'1818.2
2014-Jul-22 20:33N 43°37' W 005°36'5 0.4
2014-Jul-22 08:33N 43°34' W 005°41'1414.0
2014-Jul-22 07:33N 43°45' W 005°30'  

Dump ship's entire track history